createdAt,value
2018-08-24T00:00:20.957Z,17.7
2018-08-24T00:01:23.046Z,17.6
2018-08-24T00:02:25.143Z,17.6
2018-08-24T00:03:27.642Z,17.7
2018-08-24T00:04:29.744Z,17.7
2018-08-24T00:05:31.830Z,17.8
2018-08-24T00:06:33.934Z,17.8
2018-08-24T00:07:36.031Z,17.8
2018-08-24T00:08:38.521Z,17.8
2018-08-24T00:09:40.637Z,17.8
2018-08-24T00:10:42.739Z,17.9
2018-08-24T00:11:45.224Z,17.9
2018-08-24T00:12:47.339Z,17.9
2018-08-24T00:13:49.748Z,17.8
2018-08-24T00:14:51.848Z,17.8
2018-08-24T00:15:53.954Z,17.8
2018-08-24T00:16:56.042Z,17.7
2018-08-24T00:17:58.144Z,17.7
2018-08-24T00:19:00.243Z,17.7
2018-08-24T00:20:02.350Z,17.7
2018-08-24T00:21:04.439Z,17.6
2018-08-24T00:22:06.844Z,17.5
2018-08-24T00:23:09.332Z,17.6
2018-08-24T00:24:11.728Z,17.6
2018-08-24T00:25:14.130Z,17.5
2018-08-24T00:26:16.219Z,17.5
2018-08-24T00:27:18.318Z,17.5
2018-08-24T00:28:20.417Z,17.6
2018-08-24T00:29:22.528Z,17.6
2018-08-24T00:30:24.618Z,17.6
2018-08-24T00:31:27.036Z,17.6
2018-08-24T00:32:29.150Z,17.6
2018-08-24T00:33:31.528Z,17.6
2018-08-24T00:34:33.643Z,17.6
2018-08-24T00:35:35.745Z,17.6
2018-08-24T00:36:38.230Z,17.6
2018-08-24T00:37:40.629Z,17.6
2018-08-24T00:38:42.745Z,17.6
2018-08-24T00:39:44.841Z,17.7
2018-08-24T00:40:46.934Z,17.7
2018-08-24T00:41:49.034Z,17.7
2018-08-24T00:42:51.186Z,17.7
2018-08-24T00:43:53.247Z,17.7
2018-08-24T00:44:55.338Z,17.7
2018-08-24T00:45:57.453Z,17.8
2018-08-24T00:46:59.553Z,17.8
2018-08-24T00:48:01.660Z,17.9
2018-08-24T00:49:04.056Z,17.8
2018-08-24T00:50:06.147Z,17.8
2018-08-24T00:51:08.654Z,17.7
2018-08-24T00:52:10.739Z,17.7
2018-08-24T00:53:12.856Z,17.7
2018-08-24T00:54:14.939Z,17.7
2018-08-24T00:55:17.440Z,17.7
2018-08-24T00:56:19.540Z,17.7
2018-08-24T00:57:21.638Z,17.7
2018-08-24T00:58:23.753Z,17.6
2018-08-24T00:59:25.846Z,17.6
2018-08-24T01:00:27.950Z,17.6
2018-08-24T01:01:30.338Z,17.6
2018-08-24T01:02:32.834Z,17.5
2018-08-24T01:03:34.924Z,17.5
2018-08-24T01:04:37.031Z,17.5
2018-08-24T01:05:39.140Z,17.5
2018-08-24T01:06:41.511Z,17.6
2018-08-24T01:07:43.624Z,17.6
2018-08-24T01:08:45.719Z,17.5
2018-08-24T01:09:47.811Z,17.6
2018-08-24T01:10:49.911Z,17.6
2018-08-24T01:11:52.016Z,17.6
2018-08-24T01:12:54.113Z,17.5
2018-08-24T01:13:56.216Z,17.5
2018-08-24T01:14:58.323Z,17.5
2018-08-24T01:16:00.410Z,17.5
2018-08-24T01:17:02.905Z,17.6
2018-08-24T01:18:05.005Z,17.5
2018-08-24T01:19:07.116Z,17.6
2018-08-24T01:20:09.500Z,17.6
2018-08-24T01:21:12.175Z,17.6
2018-08-24T01:22:14.286Z,17.6
2018-08-24T01:23:16.670Z,17.6
2018-08-24T01:24:19.070Z,17.6
2018-08-24T01:25:21.744Z,17.6
2018-08-24T01:26:23.849Z,17.7
2018-08-24T01:27:26.327Z,17.8
2018-08-24T01:28:28.438Z,17.8
2018-08-24T01:29:30.829Z,17.8
2018-08-24T01:30:32.923Z,17.9
2018-08-24T01:31:35.039Z,17.9
2018-08-24T01:32:37.132Z,17.9
2018-08-24T01:33:39.232Z,17.9
2018-08-24T01:34:41.622Z,17.9
2018-08-24T01:35:44.035Z,17.9
2018-08-24T01:36:46.118Z,17.9
2018-08-24T01:37:48.227Z,17.8
2018-08-24T01:38:50.332Z,17.8
2018-08-24T01:39:52.723Z,17.8
2018-08-24T01:40:54.834Z,17.8
2018-08-24T01:41:56.935Z,17.7
2018-08-24T01:42:59.027Z,17.6
2018-08-24T01:44:01.130Z,17.7
2018-08-24T01:45:03.239Z,17.6
2018-08-24T01:46:05.340Z,17.5
2018-08-24T01:47:07.449Z,17.6
2018-08-24T01:48:09.557Z,17.6
2018-08-24T01:49:11.948Z,17.5
2018-08-24T01:50:14.440Z,17.5
2018-08-24T01:51:16.546Z,17.5
2018-08-24T01:52:18.635Z,17.5
2018-08-24T01:53:20.741Z,17.4
2018-08-24T01:54:22.848Z,17.4
2018-08-24T01:55:25.349Z,17.5
2018-08-24T01:56:27.436Z,17.5
2018-08-24T01:57:29.833Z,17.5
2018-08-24T01:58:31.933Z,17.5
2018-08-24T01:59:34.051Z,17.6
2018-08-24T02:00:36.134Z,17.7
2018-08-24T02:01:38.530Z,17.6
2018-08-24T02:02:41.020Z,17.6
2018-08-24T02:03:43.403Z,17.6
2018-08-24T02:04:45.520Z,17.6
2018-08-24T02:05:47.610Z,17.8
2018-08-24T02:06:49.710Z,17.6
2018-08-24T02:07:51.804Z,17.7
2018-08-24T02:08:54.211Z,17.6
2018-08-24T02:09:56.590Z,17.8
2018-08-24T02:10:58.694Z,17.9
2018-08-24T02:12:00.802Z,18
2018-08-24T02:13:02.890Z,18.1
2018-08-24T02:14:05.003Z,18.1
2018-08-24T02:15:07.101Z,18.2
2018-08-24T02:16:09.190Z,18.2
2018-08-24T02:17:11.296Z,18.1
2018-08-24T02:18:13.417Z,18.3
2018-08-24T02:19:15.908Z,18.2
2018-08-24T02:20:18.461Z,18.3
2018-08-24T02:21:20.560Z,18.3
2018-08-24T02:22:22.650Z,18.4
2018-08-24T02:23:24.745Z,18.5
2018-08-24T02:24:27.239Z,18.4
2018-08-24T02:25:29.624Z,18.4
2018-08-24T02:26:31.737Z,18.5
2018-08-24T02:27:33.833Z,18.5
2018-08-24T02:28:36.314Z,18.6
2018-08-24T02:29:38.425Z,18.6
2018-08-24T02:30:40.525Z,18.5
2018-08-24T02:31:43.024Z,18.6
2018-08-24T02:32:45.115Z,18.6
2018-08-24T02:33:47.226Z,18.7
2018-08-24T02:34:49.712Z,18.7
2018-08-24T02:35:51.817Z,18.8
2018-08-24T02:36:53.924Z,18.8
2018-08-24T02:37:56.007Z,18.8
2018-08-24T02:38:58.120Z,18.8
2018-08-24T02:40:00.225Z,18.8
2018-08-24T02:41:03.004Z,18.8
2018-08-24T02:42:05.090Z,18.8
2018-08-24T02:43:07.198Z,18.7
2018-08-24T02:44:09.605Z,18.7
2018-08-24T02:45:11.756Z,18.6
2018-08-24T02:46:13.815Z,18.6
2018-08-24T02:47:15.901Z,18.6
2018-08-24T02:48:18.003Z,18.7
2018-08-24T02:49:20.406Z,18.7
2018-08-24T02:50:22.808Z,18.7
2018-08-24T02:51:25.297Z,18.7
2018-08-24T02:52:28.086Z,18.8
2018-08-24T02:53:30.184Z,18.7
2018-08-24T02:54:32.284Z,18.7
2018-08-24T02:55:34.692Z,18.6
2018-08-24T02:56:36.790Z,18.6
2018-08-24T02:57:38.883Z,18.6
2018-08-24T02:58:41.290Z,18.6
2018-08-24T02:59:43.390Z,18.5
2018-08-24T03:00:45.491Z,18.5
2018-08-24T03:01:47.604Z,18.5
2018-08-24T03:02:49.694Z,18.5
2018-08-24T03:03:51.799Z,18.5
2018-08-24T03:04:53.900Z,18.4
2018-08-24T03:05:56.009Z,18.4
2018-08-24T03:06:58.093Z,18.3
2018-08-24T03:08:00.202Z,18.4
2018-08-24T03:09:02.301Z,18.4
2018-08-24T03:10:04.390Z,18.3
2018-08-24T03:11:06.781Z,18.3
2018-08-24T03:12:08.895Z,18.3
2018-08-24T03:13:11.398Z,18.3
2018-08-24T03:14:13.504Z,18.2
2018-08-24T03:15:15.985Z,18.1
2018-08-24T03:16:18.149Z,18.2
2018-08-24T03:17:20.494Z,18.1
2018-08-24T03:18:22.584Z,18.2
2018-08-24T03:19:24.703Z,18.3
2018-08-24T03:20:26.792Z,18.2
2018-08-24T03:21:28.890Z,18.2
2018-08-24T03:22:31.001Z,18.2
2018-08-24T03:23:33.394Z,18.1
2018-08-24T03:24:35.486Z,18.1
2018-08-24T03:25:37.586Z,18
2018-08-24T03:26:39.680Z,18
2018-08-24T03:27:41.834Z,18
2018-08-24T03:28:43.961Z,18
2018-08-24T03:29:46.060Z,18
2018-08-24T03:30:48.444Z,18.1
2018-08-24T03:31:50.954Z,18.1
2018-08-24T03:32:53.343Z,18.1
2018-08-24T03:33:55.438Z,18
2018-08-24T03:34:57.545Z,18
2018-08-24T03:35:59.858Z,18
2018-08-24T03:37:01.973Z,18
2018-08-24T03:38:04.469Z,18
2018-08-24T03:39:06.577Z,18.1
2018-08-24T03:40:08.967Z,18
2018-08-24T03:41:11.368Z,18
2018-08-24T03:42:13.468Z,18
2018-08-24T03:43:15.568Z,18
2018-08-24T03:44:17.972Z,18
2018-08-24T03:45:20.653Z,18
2018-08-24T03:46:23.352Z,18
2018-08-24T03:47:25.444Z,17.9
2018-08-24T03:48:27.561Z,17.9
2018-08-24T03:49:29.972Z,17.9
2018-08-24T03:50:32.360Z,17.9
2018-08-24T03:51:34.454Z,17.9
2018-08-24T03:52:36.569Z,17.9
2018-08-24T03:53:39.015Z,17.9
2018-08-24T03:54:41.113Z,17.9
2018-08-24T03:55:43.221Z,17.9
2018-08-24T03:56:45.723Z,17.8
2018-08-24T03:57:48.123Z,17.7
2018-08-24T03:58:50.526Z,17.8
2018-08-24T03:59:52.619Z,17.8
2018-08-24T04:00:54.722Z,17.8
2018-08-24T04:01:57.132Z,17.8
2018-08-24T04:02:59.931Z,17.7
2018-08-24T04:04:02.034Z,17.7
2018-08-24T04:05:04.145Z,17.7
2018-08-24T04:06:06.628Z,17.7
2018-08-24T04:07:08.729Z,17.6
2018-08-24T04:08:10.836Z,17.7
2018-08-24T04:09:13.219Z,17.6
2018-08-24T04:10:15.327Z,17.7
2018-08-24T04:11:17.428Z,17.5
2018-08-24T04:12:19.831Z,17.5
2018-08-24T04:13:21.921Z,17.5
2018-08-24T04:14:24.316Z,17.5
2018-08-24T04:15:26.811Z,17.6
2018-08-24T04:16:28.904Z,17.6
2018-08-24T04:17:31.406Z,17.6
2018-08-24T04:18:33.498Z,17.5
2018-08-24T04:19:36.777Z,17.5
2018-08-24T04:20:38.798Z,17.6
2018-08-24T04:21:40.912Z,17.6
2018-08-24T04:22:43.000Z,17.6
2018-08-24T04:23:45.108Z,17.5
2018-08-24T04:24:47.523Z,17.5
2018-08-24T04:25:49.653Z,17.4
2018-08-24T04:26:51.717Z,17.5
2018-08-24T04:27:54.107Z,17.5
2018-08-24T04:28:56.510Z,17.4
2018-08-24T04:29:59.388Z,17.3
2018-08-24T04:31:01.481Z,17.3
2018-08-24T04:32:03.589Z,17.3
2018-08-24T04:33:05.717Z,17.4
2018-08-24T04:34:07.784Z,17.4
2018-08-24T04:35:09.902Z,17.5
2018-08-24T04:36:12.306Z,17.4
2018-08-24T04:37:14.384Z,17.4
2018-08-24T04:38:16.886Z,17.5
2018-08-24T04:39:19.282Z,17.5
2018-08-24T04:40:21.397Z,17.5
2018-08-24T04:41:23.477Z,17.5
2018-08-24T04:42:25.952Z,17.4
2018-08-24T04:43:28.058Z,17.5
2018-08-24T04:44:30.156Z,17.5
2018-08-24T04:45:32.623Z,17.5
2018-08-24T04:46:35.498Z,17.5
2018-08-24T04:47:37.609Z,17.6
2018-08-24T04:48:39.709Z,17.6
2018-08-24T04:49:41.806Z,17.6
2018-08-24T04:50:44.233Z,17.7
2018-08-24T04:51:46.326Z,17.7
2018-08-24T04:52:48.422Z,17.7
2018-08-24T04:53:50.915Z,17.7
2018-08-24T04:54:53.025Z,17.8
2018-08-24T04:55:55.114Z,17.8
2018-08-24T04:56:57.894Z,17.8
2018-08-24T04:58:00.000Z,17.8
2018-08-24T04:59:02.090Z,17.8
2018-08-24T05:00:04.490Z,17.9
2018-08-24T05:01:06.591Z,17.9
2018-08-24T05:02:08.689Z,17.9
2018-08-24T05:03:10.789Z,17.8
2018-08-24T05:04:13.506Z,17.9
2018-08-24T05:05:15.604Z,17.9
2018-08-24T05:06:18.010Z,17.9
2018-08-24T05:07:20.110Z,18
2018-08-24T05:08:22.500Z,17.9
2018-08-24T05:09:24.600Z,18
2018-08-24T05:10:27.033Z,17.9
2018-08-24T05:11:29.407Z,17.9
2018-08-24T05:12:31.512Z,17.9
2018-08-24T05:13:33.616Z,17.9
2018-08-24T05:14:36.023Z,17.8
2018-08-24T05:15:38.430Z,17.9
2018-08-24T05:16:40.525Z,17.9
2018-08-24T05:17:42.625Z,17.9
2018-08-24T05:18:44.713Z,17.9
2018-08-24T05:19:46.826Z,17.9
2018-08-24T05:20:48.920Z,17.9
2018-08-24T05:21:51.018Z,17.9
2018-08-24T05:22:53.128Z,17.9
2018-08-24T05:23:55.511Z,17.9
2018-08-24T05:24:57.919Z,17.8
2018-08-24T05:26:00.019Z,17.7
2018-08-24T05:27:02.122Z,17.7
2018-08-24T05:28:04.238Z,17.8
2018-08-24T05:29:06.654Z,17.9
2018-08-24T05:30:08.751Z,17.8
2018-08-24T05:31:10.843Z,17.8
2018-08-24T05:32:13.647Z,17.9
2018-08-24T05:33:16.131Z,17.9
2018-08-24T05:34:18.229Z,17.9
2018-08-24T05:35:20.335Z,17.9
2018-08-24T05:36:22.451Z,18
2018-08-24T05:37:24.838Z,18
2018-08-24T05:38:27.545Z,18
2018-08-24T05:39:29.639Z,18
2018-08-24T05:40:32.063Z,18
2018-08-24T05:41:34.225Z,18.1
2018-08-24T05:42:36.276Z,18.1
2018-08-24T05:43:38.767Z,18.1
2018-08-24T05:44:40.851Z,18.1
2018-08-24T05:45:42.954Z,18.1
2018-08-24T05:46:45.448Z,18.1
2018-08-24T05:47:47.543Z,18.2
2018-08-24T05:48:50.627Z,18.3
2018-08-24T05:49:52.669Z,18.3
2018-08-24T05:50:55.057Z,18.4
2018-08-24T05:51:57.150Z,18.4
2018-08-24T05:52:59.265Z,18.5
2018-08-24T05:54:01.351Z,18.5
2018-08-24T05:55:04.034Z,18.6
2018-08-24T05:56:06.142Z,18.6
2018-08-24T05:57:08.613Z,18.6
2018-08-24T05:58:11.018Z,18.6
2018-08-24T05:59:13.120Z,18.7
2018-08-24T06:00:15.509Z,18.8
2018-08-24T06:01:17.998Z,18.8
2018-08-24T06:02:20.470Z,18.9
2018-08-24T06:03:22.568Z,18.9
2018-08-24T06:04:24.660Z,18.9
2018-08-24T06:05:26.776Z,19
2018-08-24T06:06:28.866Z,19
2018-08-24T06:07:31.356Z,19.1
2018-08-24T06:08:33.784Z,19.1
2018-08-24T06:09:35.884Z,19.1
2018-08-24T06:10:37.973Z,19.1
2018-08-24T06:11:40.077Z,19.1
2018-08-24T06:12:42.169Z,19.1
2018-08-24T06:13:44.271Z,19.2
2018-08-24T06:14:46.379Z,19.1
2018-08-24T06:15:48.510Z,19.2
2018-08-24T06:16:51.071Z,19.2
2018-08-24T06:17:53.374Z,19.2
2018-08-24T06:18:55.473Z,19.2
2018-08-24T06:19:57.620Z,19.2
2018-08-24T06:20:59.960Z,19.2
2018-08-24T06:22:02.077Z,19.1
2018-08-24T06:23:04.465Z,19.2
2018-08-24T06:24:06.852Z,19.1
2018-08-24T06:25:09.332Z,19.2
2018-08-24T06:26:11.445Z,19.2
2018-08-24T06:27:14.215Z,19.2
2018-08-24T06:28:16.316Z,19.2
2018-08-24T06:29:18.425Z,19.2
2018-08-24T06:30:20.803Z,19.2
2018-08-24T06:31:22.912Z,19.2
2018-08-24T06:32:25.298Z,19.1
2018-08-24T06:33:27.400Z,19.1
2018-08-24T06:34:29.486Z,19.1
2018-08-24T06:35:31.610Z,19.1
2018-08-24T06:36:33.697Z,19.2
2018-08-24T06:37:36.183Z,19.1
2018-08-24T06:38:38.592Z,19.1
2018-08-24T06:39:40.683Z,19
2018-08-24T06:40:42.784Z,19
2018-08-24T06:41:44.948Z,19
2018-08-24T06:42:46.990Z,19
2018-08-24T06:43:49.086Z,18.9
2018-08-24T06:44:51.184Z,19
2018-08-24T06:45:53.281Z,19
2018-08-24T06:46:55.774Z,19
2018-08-24T06:47:57.885Z,19
2018-08-24T06:48:59.991Z,19
2018-08-24T06:50:02.770Z,19
2018-08-24T06:51:04.884Z,19
2018-08-24T06:52:06.984Z,19
2018-08-24T06:53:09.848Z,18.9
2018-08-24T06:54:11.913Z,18.9
2018-08-24T06:55:14.007Z,18.9
2018-08-24T06:56:16.397Z,18.9
2018-08-24T06:57:18.492Z,18.9
2018-08-24T06:58:20.604Z,18.8
2018-08-24T06:59:22.707Z,18.9
2018-08-24T07:00:24.796Z,18.8
2018-08-24T07:01:26.898Z,18.8
2018-08-24T07:02:29.006Z,18.8
2018-08-24T07:03:31.092Z,18.7
2018-08-24T07:04:33.594Z,18.7
2018-08-24T07:05:36.065Z,18.8
2018-08-24T07:06:38.136Z,18.8
2018-08-24T07:07:40.515Z,18.7
2018-08-24T07:08:42.633Z,18.6
2018-08-24T07:09:45.019Z,18.7
2018-08-24T07:10:47.116Z,18.7
2018-08-24T07:11:49.231Z,18.7
2018-08-24T07:12:51.336Z,18.8
2018-08-24T07:13:53.793Z,18.8
2018-08-24T07:14:56.300Z,18.9
2018-08-24T07:15:58.396Z,18.9
2018-08-24T07:17:00.487Z,18.9
2018-08-24T07:18:02.899Z,19
2018-08-24T07:19:04.997Z,19.1
2018-08-24T07:20:07.491Z,19
2018-08-24T07:21:09.990Z,19.2
2018-08-24T07:22:12.113Z,19.2
2018-08-24T07:23:14.209Z,19.2
2018-08-24T07:24:16.336Z,19.2
2018-08-24T07:25:18.950Z,19.2
2018-08-24T07:26:21.029Z,19.2
2018-08-24T07:27:23.146Z,19.3
2018-08-24T07:28:25.237Z,19.4
2018-08-24T07:29:28.039Z,19.4
2018-08-24T07:30:30.457Z,19.5
2018-08-24T07:31:32.857Z,19.4
2018-08-24T07:32:34.948Z,19.4
2018-08-24T07:33:37.450Z,19.5
2018-08-24T07:34:39.548Z,19.6
2018-08-24T07:35:42.710Z,19.6
2018-08-24T07:36:44.823Z,19.5
2018-08-24T07:37:46.918Z,19.6
2018-08-24T07:38:49.024Z,19.7
2018-08-24T07:39:51.404Z,19.5
2018-08-24T07:40:53.523Z,19.6
2018-08-24T07:41:56.109Z,19.7
2018-08-24T07:42:58.145Z,19.8
2018-08-24T07:44:00.540Z,19.7
2018-08-24T07:45:02.632Z,19.8
2018-08-24T07:46:04.802Z,19.8
2018-08-24T07:47:06.857Z,19.8
2018-08-24T07:48:08.950Z,19.8
2018-08-24T07:49:11.339Z,19.8
2018-08-24T07:50:13.452Z,19.9
2018-08-24T07:51:16.135Z,19.8
2018-08-24T07:52:18.251Z,19.7
2018-08-24T07:53:20.648Z,19.7
2018-08-24T07:54:22.739Z,19.7
2018-08-24T07:55:24.850Z,19.4
2018-08-24T07:56:26.960Z,19.5
2018-08-24T07:57:29.048Z,19.5
2018-08-24T07:58:31.163Z,19.7
2018-08-24T07:59:33.269Z,19.8
2018-08-24T08:00:35.357Z,19.8
2018-08-24T08:01:37.474Z,19.9
2018-08-24T08:02:39.573Z,20
2018-08-24T08:03:41.673Z,19.9
2018-08-24T08:04:43.765Z,20.1
2018-08-24T08:05:45.879Z,20.2
2018-08-24T08:06:47.972Z,20
2018-08-24T08:07:50.366Z,19.9
2018-08-24T08:08:52.474Z,20
2018-08-24T08:09:54.849Z,20
2018-08-24T08:10:56.963Z,20
2018-08-24T08:11:59.065Z,20.3
2018-08-24T08:13:01.471Z,20.4
2018-08-24T08:14:03.852Z,20.5
2018-08-24T08:15:05.961Z,20.5
2018-08-24T08:16:08.067Z,20.5
2018-08-24T08:17:10.179Z,20.5
2018-08-24T08:18:12.740Z,20.5
2018-08-24T08:19:14.758Z,20.6
2018-08-24T08:20:16.856Z,20.6
2018-08-24T08:21:18.945Z,20.5
2018-08-24T08:22:21.438Z,20.6
2018-08-24T08:23:23.550Z,20.8
2018-08-24T08:24:25.647Z,21
2018-08-24T08:25:28.436Z,20.9
2018-08-24T08:26:30.863Z,20.9
2018-08-24T08:27:32.954Z,20.9
2018-08-24T08:28:35.053Z,20.8
2018-08-24T08:29:37.165Z,20.6
2018-08-24T08:30:39.259Z,20.6
2018-08-24T08:31:41.368Z,20.5
2018-08-24T08:32:43.868Z,20.6
2018-08-24T08:33:45.962Z,20.6
2018-08-24T08:34:48.076Z,20.6
2018-08-24T08:35:50.174Z,20.5
2018-08-24T08:36:52.280Z,20.4
2018-08-24T08:37:54.371Z,20.2
2018-08-24T08:38:56.537Z,20.4
2018-08-24T08:39:58.973Z,20.6
2018-08-24T08:41:01.031Z,20.6
2018-08-24T08:42:03.148Z,20.6
2018-08-24T08:43:05.234Z,20.8
2018-08-24T08:44:07.642Z,20.8
2018-08-24T08:45:09.749Z,21
2018-08-24T08:46:11.861Z,21
2018-08-24T08:47:14.343Z,21
2018-08-24T08:48:16.460Z,21.1
2018-08-24T08:49:18.558Z,21
2018-08-24T08:50:20.657Z,21.2
2018-08-24T08:51:22.775Z,21
2018-08-24T08:52:24.873Z,21
2018-08-24T08:53:27.002Z,21.1
2018-08-24T08:54:29.073Z,21.1
2018-08-24T08:55:31.174Z,21.2
2018-08-24T08:56:33.676Z,21.4
2018-08-24T08:57:35.778Z,21.3
2018-08-24T08:58:37.888Z,21.2
2018-08-24T08:59:40.001Z,21
2018-08-24T09:00:42.091Z,21
2018-08-24T09:01:44.195Z,21
2018-08-24T09:02:46.305Z,21
2018-08-24T09:03:48.701Z,21.1
2018-08-24T09:04:50.813Z,21.2
2018-08-24T09:05:52.953Z,21.1
2018-08-24T09:06:55.035Z,21.2
2018-08-24T09:07:57.245Z,21.4
2018-08-24T09:08:59.356Z,21.6
2018-08-24T09:10:01.458Z,21.8
2018-08-24T09:11:03.549Z,21.5
2018-08-24T09:12:05.668Z,21.5
2018-08-24T09:13:08.149Z,21.4
2018-08-24T09:14:10.255Z,21.1
2018-08-24T09:15:12.658Z,21.1
2018-08-24T09:16:14.752Z,21.1
2018-08-24T09:17:16.863Z,21.1
2018-08-24T09:18:19.324Z,21.3
2018-08-24T09:19:21.379Z,21.4
2018-08-24T09:20:23.467Z,21.6
2018-08-24T09:21:25.580Z,21.7
2018-08-24T09:22:27.683Z,21.8
2018-08-24T09:23:29.790Z,22
2018-08-24T09:24:32.195Z,21.8
2018-08-24T09:25:34.320Z,21.9
2018-08-24T09:26:36.399Z,22
2018-08-24T09:27:38.908Z,22
2018-08-24T09:28:41.017Z,22
2018-08-24T09:29:43.115Z,21.8
2018-08-24T09:30:45.517Z,21.8
2018-08-24T09:31:47.634Z,21.9
2018-08-24T09:32:49.819Z,21.7
2018-08-24T09:33:51.842Z,21.6
2018-08-24T09:34:53.951Z,21.6
2018-08-24T09:35:56.066Z,21.5
2018-08-24T09:36:58.159Z,21.5
2018-08-24T09:38:00.348Z,21.3
2018-08-24T09:39:02.670Z,21.6
2018-08-24T09:40:04.769Z,21.8
2018-08-24T09:41:06.891Z,21.5
2018-08-24T09:42:08.992Z,21.7
2018-08-24T09:43:11.150Z,21.6
2018-08-24T09:44:13.196Z,21.6
2018-08-24T09:45:15.702Z,21.5
2018-08-24T09:46:18.089Z,21.7
2018-08-24T09:47:20.581Z,21.9
2018-08-24T09:48:22.994Z,21.9
2018-08-24T09:49:25.087Z,21.9
2018-08-24T09:50:27.516Z,21.9
2018-08-24T09:51:29.909Z,21.7
2018-08-24T09:52:32.018Z,21.6
2018-08-24T09:53:34.125Z,21.4
2018-08-24T09:54:36.512Z,21.4
2018-08-24T09:55:38.615Z,21.5
2018-08-24T09:56:41.071Z,21.5
2018-08-24T09:57:43.453Z,21.5
2018-08-24T09:58:45.550Z,21.6
2018-08-24T09:59:47.653Z,21.4
2018-08-24T10:00:49.766Z,21.4
2018-08-24T10:01:52.263Z,21.3
2018-08-24T10:02:54.392Z,21.3
2018-08-24T10:03:56.847Z,21.2
2018-08-24T10:04:58.941Z,21.2
2018-08-24T10:06:01.050Z,21.3
2018-08-24T10:07:03.172Z,21.3
2018-08-24T10:08:05.277Z,21.1
2018-08-24T10:09:07.375Z,21.1
2018-08-24T10:10:09.494Z,21.2
2018-08-24T10:11:11.880Z,21.1
2018-08-24T10:12:13.980Z,21.2
2018-08-24T10:13:16.557Z,21.1
2018-08-24T10:14:18.601Z,20.9
2018-08-24T10:15:21.014Z,20.9
2018-08-24T10:16:23.409Z,21.1
2018-08-24T10:17:25.530Z,21.1
2018-08-24T10:18:27.621Z,21
2018-08-24T10:19:29.739Z,20.8
2018-08-24T10:20:32.161Z,20.8
2018-08-24T10:21:34.262Z,21
2018-08-24T10:22:36.669Z,21
2018-08-24T10:23:38.759Z,21.1
2018-08-24T10:24:40.861Z,21
2018-08-24T10:25:42.957Z,21.1
2018-08-24T10:26:45.364Z,21
2018-08-24T10:27:47.461Z,21
2018-08-24T10:28:49.575Z,21.1
2018-08-24T10:29:52.476Z,20.9
2018-08-24T10:30:54.408Z,21
2018-08-24T10:31:56.812Z,21
2018-08-24T10:32:58.919Z,20.9
2018-08-24T10:34:01.013Z,20.8
2018-08-24T10:35:03.123Z,20.8
2018-08-24T10:36:05.237Z,20.8
2018-08-24T10:37:07.340Z,20.8
2018-08-24T10:38:09.448Z,20.9
2018-08-24T10:39:12.495Z,21
2018-08-24T10:40:14.591Z,20.9
2018-08-24T10:41:17.104Z,20.9
2018-08-24T10:42:19.217Z,20.8
2018-08-24T10:43:21.307Z,20.6
2018-08-24T10:44:23.423Z,20.7
2018-08-24T10:45:25.925Z,20.8
2018-08-24T10:46:28.036Z,20.7
2018-08-24T10:47:30.138Z,20.7
2018-08-24T10:48:32.540Z,20.6
2018-08-24T10:49:35.869Z,20.6
2018-08-24T10:50:37.980Z,20.5
2018-08-24T10:51:40.076Z,20.5
2018-08-24T10:52:42.508Z,20.3
2018-08-24T10:53:44.615Z,20.4
2018-08-24T10:54:46.719Z,20.4
2018-08-24T10:55:49.496Z,20.3
2018-08-24T10:56:51.801Z,20.2
2018-08-24T10:57:53.910Z,20.3
2018-08-24T10:58:56.016Z,20.3
2018-08-24T10:59:58.137Z,20.3
2018-08-24T11:01:00.228Z,20.2
2018-08-24T11:02:02.869Z,20.3
2018-08-24T11:03:04.926Z,20.3
2018-08-24T11:04:07.015Z,20.3
2018-08-24T11:05:09.128Z,20.3
2018-08-24T11:06:11.233Z,20.4
2018-08-24T11:07:13.404Z,20.2
2018-08-24T11:08:15.733Z,20.4
2018-08-24T11:09:18.140Z,20.5
2018-08-24T11:10:20.243Z,20.4
2018-08-24T11:11:22.354Z,20.4
2018-08-24T11:12:24.457Z,20.4
2018-08-24T11:13:26.547Z,20.5
2018-08-24T11:14:28.944Z,20.4
2018-08-24T11:15:31.060Z,20.4
2018-08-24T11:16:33.152Z,20.4
2018-08-24T11:17:35.938Z,20.5
2018-08-24T11:18:38.343Z,20.7
2018-08-24T11:19:40.833Z,20.6
2018-08-24T11:20:42.957Z,20.6
2018-08-24T11:21:45.357Z,21
2018-08-24T11:22:47.465Z,21
2018-08-24T11:23:49.560Z,21
2018-08-24T11:24:51.662Z,21.2
2018-08-24T11:25:54.167Z,21.2
2018-08-24T11:26:56.889Z,21.2
2018-08-24T11:27:58.906Z,21.4
2018-08-24T11:29:01.024Z,21.4
2018-08-24T11:30:03.116Z,21.4
2018-08-24T11:31:05.224Z,21.4
2018-08-24T11:32:07.323Z,21.5
2018-08-24T11:33:09.482Z,21.3
2018-08-24T11:34:11.540Z,21
2018-08-24T11:35:14.037Z,21.1
2018-08-24T11:36:16.234Z,21.3
2018-08-24T11:37:18.249Z,21.3
2018-08-24T11:38:20.661Z,21.4
2018-08-24T11:39:22.769Z,21.3
2018-08-24T11:40:24.868Z,21.2
2018-08-24T11:41:27.320Z,21.2
2018-08-24T11:42:30.114Z,21.1
2018-08-24T11:43:32.902Z,21.2
2018-08-24T11:44:35.014Z,21.3
2018-08-24T11:45:37.506Z,21.3
2018-08-24T11:46:39.606Z,21.4
2018-08-24T11:47:42.043Z,21.4
2018-08-24T11:48:44.119Z,21.2
2018-08-24T11:49:46.215Z,21.3
2018-08-24T11:50:48.740Z,21
2018-08-24T11:51:50.852Z,20.9
2018-08-24T11:52:52.953Z,21
2018-08-24T11:53:55.077Z,21
2018-08-24T11:54:57.469Z,20.8
2018-08-24T11:55:59.576Z,20.8
2018-08-24T11:57:01.675Z,20.9
2018-08-24T11:58:04.498Z,21
2018-08-24T11:59:06.886Z,21
2018-08-24T12:00:08.990Z,21
2018-08-24T12:01:11.112Z,20.9
2018-08-24T12:02:14.064Z,20.9
2018-08-24T12:03:16.159Z,21
2018-08-24T12:04:18.271Z,21.1
2018-08-24T12:05:20.371Z,21.1
2018-08-24T12:06:22.516Z,21.2
2018-08-24T12:07:24.666Z,21.3
2018-08-24T12:08:27.913Z,21.3
2018-08-24T12:09:30.337Z,21.3
2018-08-24T12:10:32.441Z,21.2
2018-08-24T12:11:34.562Z,21
2018-08-24T12:12:36.762Z,21
2018-08-24T12:13:38.773Z,20.8
2018-08-24T12:14:40.880Z,20.9
2018-08-24T12:15:43.005Z,20.9
2018-08-24T12:16:45.108Z,20.8
2018-08-24T12:17:47.219Z,20.9
2018-08-24T12:18:49.330Z,20.8
2018-08-24T12:19:53.964Z,20.8
2018-08-24T12:20:56.375Z,20.7
2018-08-24T12:21:58.492Z,20.6
2018-08-24T12:23:00.585Z,20.6
2018-08-24T12:24:02.695Z,20.7
2018-08-24T12:25:04.808Z,20.8
2018-08-24T12:26:07.208Z,20.6
2018-08-24T12:27:09.686Z,20.8
2018-08-24T12:28:12.149Z,20.9
2018-08-24T12:29:14.263Z,20.9
2018-08-24T12:30:16.360Z,20.9
2018-08-24T12:31:18.798Z,21
2018-08-24T12:32:20.894Z,20.8
2018-08-24T12:33:23.004Z,21
2018-08-24T12:34:25.460Z,21
2018-08-24T12:35:27.553Z,21.1
2018-08-24T12:36:30.062Z,21.1
2018-08-24T12:37:32.170Z,21
2018-08-24T12:38:34.287Z,21.1
2018-08-24T12:39:36.381Z,21.1
2018-08-24T12:40:38.498Z,21.1
2018-08-24T12:41:40.893Z,20.8
2018-08-24T12:42:42.999Z,20.8
2018-08-24T12:43:45.640Z,20.7
2018-08-24T12:44:47.739Z,20.7
2018-08-24T12:45:49.844Z,20.8
2018-08-24T12:46:51.955Z,20.9
2018-08-24T12:47:54.059Z,20.8
2018-08-24T12:48:56.448Z,20.6
2018-08-24T12:49:58.562Z,20.7
2018-08-24T12:51:00.666Z,20.6
2018-08-24T12:52:03.214Z,20.7
2018-08-24T12:53:05.685Z,20.7
2018-08-24T12:54:07.818Z,20.8
2018-08-24T12:55:09.914Z,20.9
2018-08-24T12:56:12.423Z,20.8
2018-08-24T12:57:14.521Z,20.8
2018-08-24T12:58:16.627Z,20.8
2018-08-24T12:59:18.743Z,20.8
2018-08-24T13:00:21.129Z,20.7
2018-08-24T13:01:23.526Z,20.7
2018-08-24T13:02:25.632Z,20.8
2018-08-24T13:03:27.750Z,20.7
2018-08-24T13:04:29.850Z,20.6
2018-08-24T13:05:32.364Z,20.7
2018-08-24T13:06:34.469Z,20.6
2018-08-24T13:07:36.854Z,20.6
2018-08-24T13:08:39.071Z,20.8
2018-08-24T13:09:41.467Z,20.8
2018-08-24T13:10:43.572Z,21.1
2018-08-24T13:11:45.676Z,21.4
2018-08-24T13:12:47.799Z,21.6
2018-08-24T13:13:49.892Z,21.5
2018-08-24T13:14:52.006Z,21.5
2018-08-24T13:15:54.116Z,21.4
2018-08-24T13:16:56.207Z,21.5
2018-08-24T13:17:58.314Z,21.7
2018-08-24T13:19:00.431Z,21.9
2018-08-24T13:20:02.534Z,21.8
2018-08-24T13:21:04.639Z,21.8
2018-08-24T13:22:06.731Z,22.1
2018-08-24T13:23:08.848Z,22.4
2018-08-24T13:24:11.337Z,22.5
2018-08-24T13:25:13.444Z,22.6
2018-08-24T13:26:15.562Z,22.7
2018-08-24T13:27:17.722Z,22.6
2018-08-24T13:28:19.770Z,22.8
2018-08-24T13:29:21.892Z,22.7
2018-08-24T13:30:24.277Z,23
2018-08-24T13:31:26.383Z,22.9
2018-08-24T13:32:28.795Z,23.1
2018-08-24T13:33:30.887Z,23.1
2018-08-24T13:34:33.390Z,23.2
2018-08-24T13:35:35.500Z,23.4
2018-08-24T13:36:37.618Z,23.6
2018-08-24T13:37:39.709Z,23.8
2018-08-24T13:38:41.832Z,23.6
2018-08-24T13:39:44.363Z,23.9
2018-08-24T13:40:47.780Z,23.6
2018-08-24T13:41:49.949Z,23.8
2018-08-24T13:42:52.054Z,23.5
2018-08-24T13:43:54.160Z,23.2
2018-08-24T13:44:56.271Z,22.8
2018-08-24T13:45:58.392Z,22.6
2018-08-24T13:47:00.486Z,22.8
2018-08-24T13:48:02.608Z,22.7
2018-08-24T13:49:04.723Z,22.7
2018-08-24T13:50:06.822Z,22.6
2018-08-24T13:51:08.943Z,22.5
2018-08-24T13:52:11.046Z,22.4
2018-08-24T13:53:13.147Z,22.5
2018-08-24T13:54:15.643Z,22.3